createdAt,value
2018-05-17T00:00:21.541Z,14.00
2018-05-17T00:02:47.637Z,14.00
2018-05-17T00:05:14.457Z,14.10
2018-05-17T00:07:40.553Z,14.00
2018-05-17T00:10:06.629Z,14.10
2018-05-17T00:12:33.453Z,14.10
2018-05-17T00:14:59.531Z,14.10
2018-05-17T00:17:25.636Z,14.20
2018-05-17T00:19:51.731Z,14.20
2018-05-17T00:22:17.827Z,14.20
2018-05-17T00:24:43.924Z,14.20
2018-05-17T00:27:10.014Z,14.20
2018-05-17T00:29:36.841Z,14.10
2018-05-17T00:32:02.939Z,14.10
2018-05-17T00:34:29.029Z,14.10
2018-05-17T00:36:55.121Z,14.10
2018-05-17T00:39:21.197Z,14.10
2018-05-17T00:41:47.318Z,14.10
2018-05-17T00:44:14.020Z,14.10
2018-05-17T00:46:40.093Z,14.10
2018-05-17T00:49:06.176Z,14.10
2018-05-17T00:51:32.993Z,14.10
2018-05-17T00:53:59.918Z,14.10
2018-05-17T00:56:26.000Z,14.10
2018-05-17T00:58:52.830Z,14.10
2018-05-17T01:01:19.657Z,14.00
2018-05-17T01:03:45.741Z,14.00
2018-05-17T01:06:11.859Z,14.00
2018-05-17T01:08:37.968Z,14.00
2018-05-17T01:11:04.042Z,14.00
2018-05-17T01:13:30.129Z,14.00
2018-05-17T01:15:56.210Z,14.00
2018-05-17T01:18:22.301Z,14.00
2018-05-17T01:20:48.386Z,14.00
2018-05-17T01:23:15.213Z,14.00
2018-05-17T01:25:41.297Z,14.00
2018-05-17T01:28:07.373Z,14.00
2018-05-17T01:30:34.200Z,14.00
2018-05-17T01:33:00.294Z,14.00
2018-05-17T01:35:26.376Z,14.00
2018-05-17T01:38:11.076Z,14.00
2018-05-17T01:40:37.152Z,14.00
2018-05-17T01:43:03.979Z,14.00
2018-05-17T01:45:30.056Z,14.00
2018-05-17T01:47:56.149Z,14.10
2018-05-17T01:50:22.990Z,14.10
2018-05-17T01:52:49.817Z,14.10
2018-05-17T01:55:15.921Z,14.10
2018-05-17T01:57:42.028Z,14.10
2018-05-17T02:00:08.119Z,14.10
2018-05-17T02:02:34.970Z,14.20
2018-05-17T02:05:01.067Z,14.10
2018-05-17T02:07:27.142Z,14.20
2018-05-17T02:09:53.234Z,14.20
2018-05-17T02:12:20.070Z,14.20
2018-05-17T02:14:46.897Z,14.20
2018-05-17T02:17:12.978Z,14.20
2018-05-17T02:19:39.080Z,14.20
2018-05-17T02:22:05.169Z,14.30
2018-05-17T02:24:31.261Z,14.20
2018-05-17T02:27:04.174Z,14.20
2018-05-17T02:29:30.267Z,14.30
2018-05-17T02:31:56.348Z,14.20
2018-05-17T02:34:23.183Z,14.30
2018-05-17T02:36:49.267Z,14.30
2018-05-17T02:39:15.375Z,14.30
2018-05-17T02:41:41.467Z,14.30
2018-05-17T02:44:08.309Z,14.30
2018-05-17T02:49:49.900Z,14.30
2018-05-17T02:52:21.789Z,14.30
2018-05-17T02:54:48.609Z,14.20
2018-05-17T02:57:15.223Z,14.20
2018-05-17T02:59:41.309Z,14.20
2018-05-17T03:02:07.399Z,14.10
2018-05-17T03:04:33.507Z,14.10
2018-05-17T03:06:59.607Z,14.00
2018-05-17T03:09:25.707Z,14.00
2018-05-17T03:11:58.715Z,14.00
2018-05-17T03:14:24.798Z,13.90
2018-05-17T03:16:50.881Z,13.90
2018-05-17T03:19:16.960Z,13.90
2018-05-17T03:21:43.793Z,13.80
2018-05-17T03:24:10.627Z,13.80
2018-05-17T03:26:36.717Z,13.80
2018-05-17T03:29:02.792Z,13.80
2018-05-17T03:31:29.634Z,13.80
2018-05-17T03:33:56.449Z,13.80
2018-05-17T03:36:23.052Z,13.80
2018-05-17T03:38:49.136Z,13.80
2018-05-17T03:41:15.963Z,13.80
2018-05-17T03:43:42.055Z,13.80
2018-05-17T03:46:08.144Z,13.80
2018-05-17T03:48:34.993Z,13.80
2018-05-17T03:51:01.081Z,13.80
2018-05-17T03:53:27.162Z,13.80
2018-05-17T03:56:00.130Z,13.90
2018-05-17T03:58:26.227Z,13.90
2018-05-17T04:01:11.100Z,13.90
2018-05-17T04:03:55.813Z,14.00
2018-05-17T04:06:37.405Z,14.00
2018-05-17T04:09:04.297Z,14.10
2018-05-17T04:11:31.133Z,14.10
2018-05-17T04:13:58.012Z,14.20
2018-05-17T04:16:24.822Z,14.30
2018-05-17T04:18:51.641Z,14.40
2018-05-17T04:21:17.760Z,14.30
2018-05-17T04:23:43.853Z,14.40
2018-05-17T04:26:09.938Z,14.50
2018-05-17T04:28:36.025Z,14.60
2018-05-17T04:31:02.133Z,14.70
2018-05-17T04:33:28.244Z,14.80
2018-05-17T04:35:54.361Z,14.90
2018-05-17T04:50:25.606Z,15.20
2018-05-17T04:52:51.719Z,15.30
2018-05-17T04:55:18.554Z,15.30
2018-05-17T04:57:45.392Z,15.30
2018-05-17T05:00:12.950Z,15.30
2018-05-17T05:02:39.826Z,15.40
2018-05-17T05:05:05.904Z,15.30
2018-05-17T05:07:31.984Z,15.40
2018-05-17T05:09:58.833Z,15.50
2018-05-17T05:12:24.913Z,15.50
2018-05-17T05:14:51.750Z,15.50
2018-05-17T05:17:18.581Z,15.50
2018-05-17T05:19:44.674Z,15.50
2018-05-17T05:22:10.777Z,15.50
2018-05-17T05:24:36.857Z,15.50
2018-05-17T05:27:02.945Z,15.50
2018-05-17T05:29:29.039Z,15.50
2018-05-17T05:31:55.131Z,15.50
2018-05-17T05:34:21.213Z,15.50
2018-05-17T05:36:47.294Z,15.50
2018-05-17T05:39:13.383Z,15.60
2018-05-17T05:41:39.467Z,15.60
2018-05-17T05:44:06.287Z,15.70
2018-05-17T05:46:32.371Z,15.70
2018-05-17T05:48:58.462Z,15.80
2018-05-17T05:51:24.541Z,15.90
2018-05-17T05:53:50.634Z,16.20
2018-05-17T05:56:16.725Z,16.50
2018-05-17T05:58:43.565Z,16.90
2018-05-17T06:01:11.781Z,16.80
2018-05-17T06:03:37.882Z,16.80
2018-05-17T06:06:03.966Z,16.70
2018-05-17T06:08:30.056Z,16.70
2018-05-17T06:10:56.153Z,16.70
2018-05-17T06:13:22.970Z,16.80
2018-05-17T06:15:49.054Z,16.70
2018-05-17T06:18:15.140Z,16.90
2018-05-17T06:20:41.965Z,17.10
2018-05-17T06:23:08.047Z,17.10
2018-05-17T06:25:34.137Z,17.10
2018-05-17T06:28:00.957Z,17.10
2018-05-17T06:30:27.164Z,17.10
2018-05-17T06:32:53.174Z,17.10
2018-05-17T06:35:19.268Z,17.20
2018-05-17T06:37:45.363Z,17.20
2018-05-17T06:40:11.445Z,17.30
2018-05-17T06:42:37.546Z,17.40
2018-05-17T06:45:03.636Z,17.40
2018-05-17T06:47:29.730Z,17.50
2018-05-17T06:49:55.827Z,17.40
2018-05-17T06:52:21.918Z,17.40
2018-05-17T06:54:48.006Z,17.50
2018-05-17T06:57:14.105Z,17.60
2018-05-17T06:59:40.209Z,17.70
2018-05-17T07:02:07.035Z,18.30
2018-05-17T07:04:33.145Z,18.30
2018-05-17T07:06:59.250Z,18.50
2018-05-17T07:09:25.361Z,18.50
2018-05-17T07:11:51.467Z,18.50
2018-05-17T07:14:17.553Z,18.50
2018-05-17T07:16:43.650Z,18.40
2018-05-17T07:19:09.725Z,18.50
2018-05-17T07:21:35.817Z,18.60
2018-05-17T07:24:01.894Z,18.50
2018-05-17T07:26:27.985Z,18.40
2018-05-17T07:28:54.074Z,18.50
2018-05-17T07:31:20.265Z,18.50
2018-05-17T07:33:46.278Z,18.40
2018-05-17T07:36:14.513Z,18.40
2018-05-17T07:38:40.612Z,18.40
2018-05-17T07:41:06.708Z,18.40
2018-05-17T07:43:33.530Z,18.20
2018-05-17T07:45:59.620Z,18.20
2018-05-17T07:48:25.705Z,18.10
2018-05-17T07:50:52.555Z,18.00
2018-05-17T07:53:19.389Z,17.80
2018-05-17T07:55:46.225Z,17.60
2018-05-17T07:58:13.079Z,17.30
2018-05-17T08:00:39.913Z,17.10
2018-05-17T08:03:06.738Z,17.00
2018-05-17T08:05:32.822Z,17.00
2018-05-17T08:07:58.918Z,16.90
2018-05-17T08:10:25.741Z,17.20
2018-05-17T08:12:51.837Z,17.20
2018-05-17T08:15:17.913Z,17.60
2018-05-17T08:17:44.747Z,18.70
2018-05-17T08:20:11.581Z,19.10
2018-05-17T08:22:37.726Z,19.10
2018-05-17T08:25:03.752Z,19.60
2018-05-17T08:27:29.847Z,20.10
2018-05-17T08:29:55.929Z,20.40
2018-05-17T08:32:22.030Z,20.50
2018-05-17T08:34:48.120Z,20.40
2018-05-17T08:37:14.205Z,20.30
2018-05-17T08:39:40.291Z,20.30
2018-05-17T08:42:07.135Z,20.80
2018-05-17T08:44:33.999Z,21.00
2018-05-17T08:47:00.817Z,21.20
2018-05-17T08:49:27.689Z,21.30
2018-05-17T08:51:53.794Z,21.20
2018-05-17T08:54:20.692Z,21.30
2018-05-17T08:56:46.741Z,21.30
2018-05-17T08:59:12.822Z,21.40
2018-05-17T09:01:38.919Z,21.40
2018-05-17T09:04:05.759Z,21.20
2018-05-17T09:06:32.589Z,21.20
2018-05-17T09:08:58.673Z,21.10
2018-05-17T09:11:24.758Z,21.10
2018-05-17T09:13:50.874Z,21.20
2018-05-17T09:16:17.693Z,20.70
2018-05-17T09:18:43.798Z,20.60
2018-05-17T09:21:09.877Z,20.50
2018-05-17T09:23:37.346Z,20.70
2018-05-17T09:26:03.428Z,20.70
2018-05-17T09:28:29.527Z,20.40
2018-05-17T09:30:55.614Z,20.00
2018-05-17T09:33:21.706Z,19.80
2018-05-17T09:35:47.819Z,19.70
2018-05-17T09:38:13.897Z,19.60
2018-05-17T09:40:39.977Z,19.20
2018-05-17T09:43:06.077Z,18.80
2018-05-17T09:45:32.161Z,18.80
2018-05-17T09:47:58.993Z,19.00
2018-05-17T09:50:25.805Z,19.10
2018-05-17T09:52:51.903Z,19.10
2018-05-17T09:55:17.985Z,19.30
2018-05-17T09:57:44.831Z,19.40
2018-05-17T10:00:17.805Z,19.50
2018-05-17T10:02:43.893Z,19.50
2018-05-17T10:05:09.986Z,19.60
2018-05-17T10:07:36.063Z,19.70
2018-05-17T10:10:02.141Z,19.70
2018-05-17T10:12:28.225Z,19.50
2018-05-17T10:14:54.333Z,19.30
2018-05-17T10:17:20.427Z,19.00
2018-05-17T10:19:46.526Z,18.90
2018-05-17T10:22:13.358Z,18.70
2018-05-17T10:24:39.451Z,18.70
2018-05-17T10:27:05.546Z,18.60
2018-05-17T10:29:31.704Z,18.60
2018-05-17T10:31:58.465Z,18.80
2018-05-17T10:34:24.557Z,18.80
2018-05-17T10:36:50.642Z,18.90
2018-05-17T10:39:17.465Z,20.10
2018-05-17T10:41:43.542Z,20.10
2018-05-17T10:44:09.629Z,20.60
2018-05-17T10:46:37.210Z,21.00
2018-05-17T10:49:03.386Z,21.00
2018-05-17T10:51:30.141Z,21.10
2018-05-17T10:53:56.225Z,21.10
2018-05-17T10:56:22.310Z,20.90
2018-05-17T10:58:49.175Z,21.00
2018-05-17T11:01:15.286Z,21.00
2018-05-17T11:03:42.122Z,22.00
2018-05-17T11:06:08.966Z,22.40
2018-05-17T11:08:35.817Z,22.40
2018-05-17T11:11:02.667Z,22.40
2018-05-17T11:13:28.756Z,22.40
2018-05-17T11:15:54.859Z,22.30
2018-05-17T11:18:20.957Z,22.20
2018-05-17T11:20:47.067Z,21.90
2018-05-17T11:23:13.166Z,21.70
2018-05-17T11:25:39.261Z,21.80
2018-05-17T11:28:05.365Z,21.80
2018-05-17T11:30:31.465Z,21.90
2018-05-17T11:32:58.316Z,21.60
2018-05-17T11:35:24.422Z,21.50
2018-05-17T11:37:51.274Z,21.30
2018-05-17T11:40:18.173Z,21.40
2018-05-17T11:42:44.237Z,21.40
2018-05-17T11:45:11.095Z,21.40
2018-05-17T11:47:37.185Z,21.30
2018-05-17T11:50:03.273Z,21.30
2018-05-17T11:52:29.368Z,21.30
2018-05-17T11:54:56.205Z,21.10
2018-05-17T11:57:23.050Z,21.10
2018-05-17T11:59:49.892Z,21.40
2018-05-17T12:02:16.727Z,21.90
2018-05-17T12:04:43.544Z,22.30
2018-05-17T12:07:09.706Z,22.20
2018-05-17T12:09:35.734Z,22.50
2018-05-17T12:12:02.565Z,22.60
2018-05-17T12:14:29.389Z,22.60
2018-05-17T12:16:55.484Z,22.60
2018-05-17T12:19:21.573Z,22.70
2018-05-17T12:21:47.657Z,23.00
2018-05-17T12:24:13.749Z,22.90
2018-05-17T12:26:39.849Z,22.50
2018-05-17T12:29:06.679Z,22.00
2018-05-17T12:31:33.506Z,22.20
2018-05-17T12:33:59.601Z,22.10
2018-05-17T12:36:25.714Z,22.30
2018-05-17T12:38:51.809Z,22.60
2018-05-17T12:41:17.901Z,22.80
2018-05-17T12:43:43.990Z,22.90
2018-05-17T12:46:10.085Z,22.90
2018-05-17T12:48:36.913Z,22.90
2018-05-17T12:51:03.006Z,22.80
2018-05-17T12:53:29.092Z,22.80
2018-05-17T12:55:55.181Z,22.80
2018-05-17T12:58:21.282Z,22.80
2018-05-17T13:00:47.379Z,22.70
2018-05-17T13:03:13.486Z,22.80
2018-05-17T13:05:39.587Z,22.90
2018-05-17T13:08:05.684Z,23.10
2018-05-17T13:10:31.772Z,23.20
2018-05-17T13:12:58.000Z,23.20
2018-05-17T13:15:24.019Z,23.50
2018-05-17T13:17:50.122Z,23.80
2018-05-17T13:20:16.972Z,24.40
2018-05-17T13:22:43.827Z,24.60
2018-05-17T13:25:09.928Z,24.50
2018-05-17T13:27:36.029Z,24.70
2018-05-17T13:30:02.108Z,24.70
2018-05-17T13:32:28.208Z,24.70
2018-05-17T13:34:55.042Z,24.70
2018-05-17T13:37:21.194Z,24.60
2018-05-17T13:39:47.249Z,24.70
2018-05-17T13:42:13.353Z,24.80
2018-05-17T13:44:39.443Z,24.80
2018-05-17T13:47:05.555Z,24.50
2018-05-17T13:49:32.337Z,24.20
2018-05-17T13:51:58.452Z,24.00
2018-05-17T13:54:25.283Z,23.40
2018-05-17T13:56:51.365Z,23.40
2018-05-17T13:59:17.515Z,23.20
2018-05-17T14:01:43.597Z,23.10
2018-05-17T14:04:09.698Z,22.80
2018-05-17T14:06:36.527Z,22.20
2018-05-17T14:09:02.609Z,22.20
2018-05-17T14:11:28.695Z,22.00
2018-05-17T14:13:55.542Z,21.50
2018-05-17T14:16:22.374Z,21.40
2018-05-17T14:18:49.218Z,21.40
2018-05-17T14:21:16.042Z,21.50
2018-05-17T14:23:42.141Z,21.40
2018-05-17T14:26:08.222Z,21.50
2018-05-17T14:28:34.305Z,21.50
2018-05-17T14:31:00.377Z,21.40
2018-05-17T14:33:27.215Z,21.30
2018-05-17T14:35:54.037Z,21.30
2018-05-17T14:38:20.153Z,21.30
2018-05-17T14:40:46.242Z,21.30
2018-05-17T14:43:12.333Z,21.30
2018-05-17T14:45:39.157Z,21.50
2018-05-17T14:48:05.246Z,21.40
2018-05-17T14:50:31.334Z,21.70
2018-05-17T14:52:58.189Z,22.00
2018-05-17T14:55:24.279Z,22.00
2018-05-17T14:57:50.373Z,22.10
2018-05-17T15:00:16.477Z,22.10
2018-05-17T15:02:42.577Z,22.00
2018-05-17T15:05:08.686Z,22.10
2018-05-17T15:07:34.788Z,22.00
2018-05-17T15:10:00.893Z,21.80
2018-05-17T15:12:26.997Z,21.80
2018-05-17T15:14:53.097Z,21.90
2018-05-17T15:17:19.948Z,22.20
2018-05-17T15:19:46.793Z,22.40
2018-05-17T15:22:13.630Z,22.50
2018-05-17T15:24:39.758Z,22.50
2018-05-17T15:27:06.589Z,22.60
2018-05-17T15:29:33.454Z,22.60
2018-05-17T15:32:00.277Z,22.70
2018-05-17T15:34:27.124Z,22.80
2018-05-17T15:36:53.956Z,22.90
2018-05-17T15:39:20.064Z,22.90
2018-05-17T15:41:46.189Z,23.30
2018-05-17T15:44:12.278Z,23.70
2018-05-17T15:46:38.390Z,24.00
2018-05-17T15:49:04.511Z,24.40
2018-05-17T15:51:31.355Z,24.60
2018-05-17T15:53:57.457Z,24.60
2018-05-17T15:56:23.565Z,24.50
2018-05-17T15:58:49.661Z,24.30
2018-05-17T16:01:15.758Z,24.20
2018-05-17T16:03:42.620Z,23.90
2018-05-17T16:06:09.517Z,23.90
2018-05-17T16:08:35.694Z,23.80
2018-05-17T16:11:01.710Z,23.60
2018-05-17T16:13:27.802Z,23.30
2018-05-17T16:15:54.629Z,23.00
2018-05-17T16:18:20.712Z,23.00
2018-05-17T16:20:46.802Z,22.90
2018-05-17T16:23:12.896Z,22.80
2018-05-17T16:25:39.008Z,22.70
2018-05-17T16:28:05.092Z,22.60
2018-05-17T16:30:31.929Z,22.00
2018-05-17T16:32:58.754Z,21.80
2018-05-17T16:35:24.847Z,21.80
2018-05-17T16:37:50.937Z,21.70
2018-05-17T16:40:17.026Z,21.60
2018-05-17T16:42:43.171Z,21.50
2018-05-17T16:45:09.230Z,21.40
2018-05-17T16:47:35.323Z,21.20
2018-05-17T16:50:02.146Z,20.70
2018-05-17T16:52:28.265Z,20.70
2018-05-17T16:54:54.325Z,20.70
2018-05-17T16:57:21.176Z,20.60
2018-05-17T16:59:47.274Z,20.50
2018-05-17T17:02:13.391Z,20.50
2018-05-17T17:04:41.079Z,20.50
2018-05-17T17:07:07.916Z,20.60
2018-05-17T17:09:36.138Z,20.60
2018-05-17T17:12:02.224Z,20.60
2018-05-17T17:14:28.319Z,20.60
2018-05-17T17:16:54.440Z,20.60
2018-05-17T17:19:20.537Z,20.50
2018-05-17T17:21:46.642Z,20.50
2018-05-17T17:24:12.742Z,20.50
2018-05-17T17:26:39.589Z,20.40
2018-05-17T17:29:06.429Z,20.30
2018-05-17T17:31:33.268Z,20.20
2018-05-17T17:34:00.115Z,20.00
2018-05-17T17:36:27.675Z,19.90
2018-05-17T17:38:54.522Z,19.80
2018-05-17T17:41:21.362Z,19.70
2018-05-17T17:43:48.191Z,19.60
2018-05-17T17:46:14.314Z,19.60
2018-05-17T17:48:40.420Z,19.50
2018-05-17T17:51:06.546Z,19.30
2018-05-17T17:53:32.647Z,19.20
2018-05-17T17:55:58.741Z,19.00
2018-05-17T17:58:25.598Z,18.70
2018-05-17T18:00:52.422Z,18.50
2018-05-17T18:03:19.253Z,18.40
2018-05-17T18:05:45.343Z,18.30
2018-05-17T18:08:11.441Z,18.10
2018-05-17T18:10:37.522Z,17.90
2018-05-17T18:13:03.632Z,17.70
2018-05-17T18:15:29.727Z,17.60
2018-05-17T18:17:57.341Z,17.20
2018-05-17T18:20:23.430Z,17.20
2018-05-17T18:22:49.537Z,17.00
2018-05-17T18:25:15.613Z,16.90
2018-05-17T18:27:43.724Z,16.80
2018-05-17T18:30:09.809Z,16.60
2018-05-17T18:32:35.931Z,16.50
2018-05-17T18:35:01.989Z,16.30
2018-05-17T18:37:28.817Z,16.00
2018-05-17T18:39:55.649Z,15.90
2018-05-17T18:42:21.728Z,15.90
2018-05-17T18:44:47.822Z,15.80
2018-05-17T18:47:14.649Z,15.60
2018-05-17T18:49:40.724Z,15.60
2018-05-17T18:52:06.805Z,15.50
2018-05-17T18:54:33.703Z,15.30
2018-05-17T18:56:59.751Z,15.30
2018-05-17T18:59:25.854Z,15.30
2018-05-17T19:01:51.954Z,15.10
2018-05-17T19:04:18.131Z,15.00
2018-05-17T19:06:44.859Z,14.90
2018-05-17T19:09:10.958Z,14.90
2018-05-17T19:11:37.040Z,14.80
2018-05-17T19:14:03.936Z,14.70
2018-05-17T19:16:30.724Z,14.60
2018-05-17T19:18:57.553Z,14.60
2018-05-17T19:21:23.638Z,14.50
2018-05-17T19:23:49.751Z,14.50
2018-05-17T19:26:15.836Z,14.40
2018-05-17T19:28:41.963Z,14.30
2018-05-17T19:31:08.036Z,14.20
2018-05-17T19:33:34.151Z,14.20
2018-05-17T19:36:00.234Z,14.20
2018-05-17T19:38:26.342Z,14.20
2018-05-17T19:40:53.237Z,14.10
2018-05-17T19:43:19.358Z,14.10
2018-05-17T19:45:46.186Z,14.10
2018-05-17T19:48:13.056Z,14.10
2018-05-17T19:50:39.180Z,14.10
2018-05-17T19:53:05.298Z,14.00
2018-05-17T19:55:31.408Z,14.00
2018-05-17T19:57:57.523Z,14.00
2018-05-17T20:00:23.669Z,13.90
2018-05-17T20:02:50.525Z,13.80
2018-05-17T20:05:17.380Z,13.80
2018-05-17T20:07:43.481Z,13.80
2018-05-17T20:10:10.345Z,13.80
2018-05-17T20:12:36.483Z,13.80
2018-05-17T20:15:02.675Z,13.70
2018-05-17T20:17:29.632Z,13.70
2018-05-17T20:19:56.407Z,13.70
2018-05-17T20:22:22.609Z,13.70
2018-05-17T20:24:48.810Z,13.70
2018-05-17T20:27:14.993Z,13.70
2018-05-17T20:29:41.179Z,13.70
2018-05-17T20:32:08.090Z,13.60
2018-05-17T20:34:34.318Z,13.60
2018-05-17T20:37:02.044Z,13.60
2018-05-17T20:39:28.230Z,13.60
2018-05-17T20:41:55.153Z,13.70
2018-05-17T20:44:21.338Z,13.60
2018-05-17T20:46:47.517Z,13.70
2018-05-17T20:49:14.448Z,13.60
2018-05-17T20:51:40.613Z,13.60
2018-05-17T20:54:06.770Z,13.50
2018-05-17T20:56:32.946Z,13.50
2018-05-17T20:58:59.108Z,13.40
2018-05-17T21:01:25.278Z,13.40
2018-05-17T21:03:51.485Z,13.40
2018-05-17T21:06:17.649Z,13.40
2018-05-17T21:08:43.838Z,13.40
2018-05-17T21:11:10.006Z,13.40
2018-05-17T21:13:36.180Z,13.40
2018-05-17T21:16:02.355Z,13.30
2018-05-17T21:18:28.569Z,13.20
2018-05-17T21:20:54.740Z,13.20
2018-05-17T21:23:21.679Z,13.10
2018-05-17T21:25:47.860Z,13.10
2018-05-17T21:28:14.067Z,13.10
2018-05-17T21:30:40.886Z,13.00
2018-05-17T21:33:07.801Z,12.90
2018-05-17T21:35:34.007Z,12.90
2018-05-17T21:38:00.174Z,12.80
2018-05-17T21:40:26.362Z,12.80
2018-05-17T21:42:52.571Z,12.80
2018-05-17T21:45:18.771Z,12.70
2018-05-17T21:47:45.708Z,12.70
2018-05-17T21:50:12.608Z,12.60
2018-05-17T21:52:38.765Z,12.60
2018-05-17T21:55:04.947Z,12.60
2018-05-17T21:57:31.189Z,12.60
2018-05-17T21:59:57.402Z,12.60
2018-05-17T22:02:23.606Z,12.60
2018-05-17T22:04:50.514Z,12.50
2018-05-17T22:07:16.745Z,12.50
2018-05-17T22:09:42.872Z,12.50
2018-05-17T22:12:09.063Z,12.50
2018-05-17T22:14:35.235Z,12.50
2018-05-17T22:17:01.432Z,12.40
2018-05-17T22:19:27.606Z,12.30
2018-05-17T22:21:53.855Z,12.30
2018-05-17T22:24:20.037Z,12.30
2018-05-17T22:26:46.924Z,12.30
2018-05-17T22:29:13.098Z,12.20
2018-05-17T22:31:39.274Z,12.20
2018-05-17T22:34:06.187Z,12.10
2018-05-17T22:36:33.004Z,12.10
2018-05-17T22:38:59.790Z,12.10
2018-05-17T22:41:26.764Z,12.10
2018-05-17T22:43:52.983Z,12.10
2018-05-17T22:46:19.155Z,12.00
2018-05-17T22:48:45.332Z,12.00
2018-05-17T22:51:12.248Z,12.10
2018-05-17T22:53:38.402Z,12.00
2018-05-17T22:56:05.306Z,12.10
2018-05-17T22:58:32.400Z,12.10
2018-05-17T23:00:59.288Z,12.10
2018-05-17T23:03:25.468Z,12.10
2018-05-17T23:05:51.646Z,12.20
2018-05-17T23:08:17.839Z,12.30
2018-05-17T23:10:44.020Z,12.40
2018-05-17T23:13:11.671Z,12.50
2018-05-17T23:15:37.839Z,12.50
2018-05-17T23:18:04.767Z,12.60
2018-05-17T23:20:30.979Z,12.60
2018-05-17T23:22:57.171Z,12.60
2018-05-17T23:25:23.356Z,12.60
2018-05-17T23:27:50.284Z,12.60
2018-05-17T23:30:17.198Z,12.50
2018-05-17T23:32:43.412Z,12.50
2018-05-17T23:35:09.583Z,12.50
2018-05-17T23:37:35.812Z,12.40
2018-05-17T23:40:20.719Z,12.30
2018-05-17T23:42:46.962Z,12.10
2018-05-17T23:45:13.179Z,12.00
2018-05-17T23:47:39.865Z,11.90
2018-05-17T23:50:06.079Z,11.80
2018-05-17T23:52:32.271Z,11.80
2018-05-17T23:54:59.219Z,11.60
2018-05-17T23:57:25.387Z,11.60
2018-05-17T23:59:51.612Z,11.60
